Time;durP1;ratioP1;P1;durP2;ratioP2;P2;SDS_P1;SDS_P2;PMS_P1;PMS_P2;Temp;Humidity;BMP_temperature;BMP_pressure;BME280_temperature;BME280_humidity;BME280_pressure;Samples;Min_cycle;Max_cycle;Signal;HPM_P1;HPM_P2
2022/10/15 00:02:06;;;;;;;18.63;9.38;;;12.40;99.90;;;;;;4973555;28;20031;-70
2022/10/15 00:04:32;;;;;;;31.10;11.82;;;12.50;99.90;;;;;;4975511;28;20034;-70
2022/10/15 00:06:58;;;;;;;23.67;11.20;;;12.50;99.90;;;;;;4976104;28;20031;-69
2022/10/15 00:09:24;;;;;;;27.38;11.60;;;12.50;99.90;;;;;;4976506;28;20363;-69
2022/10/15 00:11:50;;;;;;;25.35;11.07;;;12.50;99.90;;;;;;4978195;28;20762;-70
2022/10/15 00:14:16;;;;;;;24.70;10.95;;;12.50;99.90;;;;;;4973389;28;20041;-70
2022/10/15 00:16:42;;;;;;;23.70;11.55;;;12.50;99.90;;;;;;4978506;28;20056;-70
2022/10/15 00:19:08;;;;;;;25.20;11.35;;;12.50;99.90;;;;;;4974652;28;20522;-71
2022/10/15 00:21:34;;;;;;;27.83;12.70;;;12.50;99.90;;;;;;4977527;28;20039;-69
2022/10/15 00:24:00;;;;;;;27.65;12.88;;;12.50;99.90;;;;;;4976538;28;20035;-70
2022/10/15 00:26:27;;;;;;;29.00;13.38;;;12.60;99.90;;;;;;4978249;28;20054;-70
2022/10/15 00:28:58;;;;;;;27.30;12.30;;;12.60;99.90;;;;;;4976452;28;20495;-70
2022/10/15 00:31:26;;;;;;;25.90;12.48;;;12.60;99.90;;;;;;4976091;28;20023;-70
2022/10/15 00:33:53;;;;;;;31.08;13.00;;;12.60;99.90;;;;;;4975626;28;20065;-70
2022/10/15 00:36:22;;;;;;;34.60;13.70;;;12.60;99.90;;;;;;4975154;28;20042;-70
2022/10/15 00:38:48;;;;;;;27.60;12.30;;;12.60;99.90;;;;;;4975928;28;20039;-70
2022/10/15 00:41:18;;;;;;;26.48;13.32;;;12.70;99.90;;;;;;4972773;28;20042;-70
2022/10/15 00:43:47;;;;;;;31.38;11.93;;;12.60;99.90;;;;;;4977752;28;20145;-70
2022/10/15 00:46:28;;;;;;;27.93;12.80;;;12.60;99.90;;;;;;4971293;28;20085;-69
2022/10/15 00:49:01;;;;;;;31.52;13.00;;;12.60;99.90;;;;;;4973407;28;20044;-69
2022/10/15 00:51:32;;;;;;;31.92;13.75;;;12.60;99.90;;;;;;4976056;28;20129;-69
2022/10/15 00:53:57;;;;;;;30.20;13.32;;;12.50;99.90;;;;;;4977856;28;20030;-69
2022/10/15 00:56:26;;;;;;;32.30;14.05;;;12.50;99.90;;;;;;4974367;28;20387;-70
2022/10/15 00:58:53;;;;;;;34.00;14.60;;;12.50;99.90;;;;;;4976927;28;20049;-70
2022/10/15 01:01:19;;;;;;;31.23;13.80;;;12.50;99.90;;;;;;4973235;28;20053;-70
2022/10/15 01:03:44;;;;;;;34.10;13.60;;;12.50;99.90;;;;;;4975297;28;20064;-70
2022/10/15 01:06:10;;;;;;;34.80;14.73;;;12.50;99.90;;;;;;4970563;28;20495;-70
2022/10/15 01:08:36;;;;;;;28.67;13.15;;;12.60;99.90;;;;;;4977413;28;20038;-70
2022/10/15 01:11:20;;;;;;;29.83;14.15;;;12.50;99.90;;;;;;4973709;28;20058;-69
2022/10/15 01:13:55;;;;;;;34.97;15.15;;;12.60;99.90;;;;;;4970350;28;20093;-71
2022/10/15 01:16:36;;;;;;;40.97;14.60;;;12.50;99.90;;;;;;4976594;28;20068;-70
2022/10/15 01:19:39;;;;;;;37.42;14.68;;;12.50;99.90;;;;;;4975317;28;20042;-69
2022/10/15 01:22:29;;;;;;;40.05;15.05;;;12.50;99.90;;;;;;4975798;28;20546;-70
2022/10/15 01:24:58;;;;;;;39.70;15.10;;;12.50;99.90;;;;;;4972036;28;20410;-70
2022/10/15 01:27:26;;;;;;;32.55;14.75;;;12.40;99.90;;;;;;4977305;28;20030;-70
2022/10/15 01:30:20;;;;;;;30.77;14.05;;;12.40;99.90;;;;;;4976511;28;20041;-70
2022/10/15 01:33:03;;;;;;;38.28;16.00;;;12.40;99.90;;;;;;4970508;28;20042;-70
2022/10/15 01:35:46;;;;;;;39.30;16.55;;;12.50;99.90;;;;;;4973819;28;20065;-70
2022/10/15 01:38:50;;;;;;;40.72;14.75;;;12.50;99.90;;;;;;4970418;28;20483;-69
2022/10/15 01:41:34;;;;;;;38.50;15.32;;;12.50;99.90;;;;;;4968973;28;20050;-70
2022/10/15 01:44:08;;;;;;;32.92;14.50;;;12.50;99.90;;;;;;4974427;28;20372;-69
2022/10/15 01:46:40;;;;;;;36.75;15.02;;;12.60;99.90;;;;;;4975613;28;20038;-70
2022/10/15 01:49:07;;;;;;;34.90;14.88;;;12.60;99.90;;;;;;4972657;28;20039;-70
2022/10/15 01:51:36;;;;;;;40.45;15.77;;;12.60;99.90;;;;;;4976854;28;20042;-70
2022/10/15 01:54:05;;;;;;;31.17;14.60;;;12.60;99.90;;;;;;4974564;28;20034;-70
2022/10/15 01:56:35;;;;;;;38.25;16.30;;;12.60;99.90;;;;;;4975370;28;20097;-70
2022/10/15 01:59:03;;;;;;;37.38;16.10;;;12.70;99.90;;;;;;4972927;28;20070;-69
2022/10/15 02:01:29;;;;;;;35.20;15.38;;;12.70;99.90;;;;;;4976451;28;20372;-70
2022/10/15 02:03:55;;;;;;;36.88;14.88;;;12.70;99.90;;;;;;4973380;28;20072;-70
2022/10/15 02:06:37;;;;;;;39.00;15.18;;;12.70;99.90;;;;;;4975560;28;20066;-70
2022/10/15 02:09:12;;;;;;;31.20;13.77;;;12.70;99.90;;;;;;4974533;28;20045;-70
2022/10/15 02:11:49;;;;;;;42.10;15.20;;;12.70;99.90;;;;;;4970181;28;20043;-69
2022/10/15 02:14:26;;;;;;;33.35;14.25;;;12.70;99.90;;;;;;4969231;28;20327;-70
2022/10/15 02:17:05;;;;;;;35.60;14.63;;;12.70;99.90;;;;;;4975045;28;20383;-69
2022/10/15 02:19:40;;;;;;;40.78;14.57;;;12.70;99.90;;;;;;4974934;28;20050;-69
2022/10/15 02:22:25;;;;;;;31.25;13.95;;;12.70;99.90;;;;;;4969522;28;20031;-70
2022/10/15 02:25:03;;;;;;;27.80;12.68;;;12.70;99.90;;;;;;4971600;28;20065;-70
2022/10/15 02:27:31;;;;;;;31.70;14.85;;;12.70;99.90;;;;;;4975766;28;20066;-70
2022/10/15 02:30:01;;;;;;;33.70;14.35;;;12.60;99.90;;;;;;4974361;28;20364;-69
2022/10/15 02:32:28;;;;;;;32.08;13.60;;;12.60;99.90;;;;;;4977503;28;20047;-69
2022/10/15 02:34:55;;;;;;;30.90;13.43;;;12.60;99.90;;;;;;4975943;28;20073;-70
2022/10/15 02:37:25;;;;;;;29.85;13.93;;;12.60;99.90;;;;;;4978819;28;20093;-69
2022/10/15 02:39:51;;;;;;;36.90;13.93;;;12.60;99.90;;;;;;4976949;28;20050;-70
2022/10/15 02:42:17;;;;;;;29.92;13.10;;;12.50;99.90;;;;;;4979167;28;20046;-70
2022/10/15 02:44:43;;;;;;;28.95;14.30;;;12.50;99.90;;;;;;4975380;28;20066;-70
2022/10/15 02:47:10;;;;;;;33.58;14.57;;;12.50;99.90;;;;;;4980586;28;20030;-71
2022/10/15 02:49:36;;;;;;;34.90;14.57;;;12.40;99.90;;;;;;4975684;28;20023;-70
2022/10/15 02:52:01;;;;;;;29.73;12.93;;;12.40;99.90;;;;;;4979448;28;20037;-69
2022/10/15 02:54:27;;;;;;;29.88;12.77;;;12.40;99.90;;;;;;4978112;28;20089;-71
2022/10/15 02:56:52;;;;;;;27.38;13.23;;;12.40;99.90;;;;;;4976493;28;20054;-69
2022/10/15 02:59:18;;;;;;;26.90;12.27;;;12.40;99.90;;;;;;4977701;28;20042;-70
2022/10/15 03:01:44;;;;;;;29.92;13.43;;;12.40;99.90;;;;;;4978942;28;20046;-71
2022/10/15 03:04:10;;;;;;;28.48;13.27;;;12.40;99.90;;;;;;4974839;28;20035;-70
2022/10/15 03:06:35;;;;;;;37.53;13.85;;;12.40;99.90;;;;;;4980030;28;20030;-69
2022/10/15 03:09:01;;;;;;;29.33;13.60;;;12.30;99.90;;;;;;4980073;28;20462;-70
2022/10/15 03:11:27;;;;;;;31.17;12.70;;;12.30;99.90;;;;;;4975606;28;20031;-70
2022/10/15 03:13:52;;;;;;;29.02;12.68;;;12.30;99.90;;;;;;4976633;28;20034;-70
2022/10/15 03:16:18;;;;;;;27.20;12.65;;;12.20;99.90;;;;;;4977743;28;20093;-70
2022/10/15 03:18:43;;;;;;;29.25;13.75;;;12.20;99.90;;;;;;4978490;28;20554;-69
2022/10/15 03:21:09;;;;;;;30.00;12.98;;;12.20;99.90;;;;;;4976293;28;20039;-70
2022/10/15 03:23:34;;;;;;;26.27;12.50;;;12.20;99.90;;;;;;4977649;28;20846;-70
2022/10/15 03:26:00;;;;;;;27.10;12.68;;;12.10;99.90;;;;;;4977345;28;20051;-70
2022/10/15 03:28:25;;;;;;;27.02;11.75;;;12.10;99.90;;;;;;4978852;28;20127;-70
2022/10/15 03:30:51;;;;;;;26.67;13.38;;;12.10;99.90;;;;;;4975384;28;20553;-70
2022/10/15 03:33:17;;;;;;;27.92;13.25;;;12.10;99.90;;;;;;4976230;28;20442;-70
2022/10/15 03:35:42;;;;;;;28.25;12.68;;;12.10;99.90;;;;;;4975050;28;20122;-70
2022/10/15 03:38:08;;;;;;;27.85;12.50;;;12.00;99.90;;;;;;4978291;28;20085;-70
2022/10/15 03:40:34;;;;;;;29.88;12.90;;;12.00;99.90;;;;;;4975951;28;20031;-70
2022/10/15 03:43:00;;;;;;;28.15;13.63;;;12.00;99.90;;;;;;4978779;28;20038;-69
2022/10/15 03:45:26;;;;;;;31.95;13.27;;;12.00;99.90;;;;;;4970836;28;20046;-70
2022/10/15 03:47:52;;;;;;;22.95;11.60;;;12.00;99.90;;;;;;4981595;28;20030;-70
2022/10/15 03:50:17;;;;;;;30.10;13.90;;;12.00;99.90;;;;;;4979758;28;20082;-69
2022/10/15 03:52:43;;;;;;;30.38;14.02;;;12.00;99.90;;;;;;4977512;28;20046;-69
2022/10/15 03:55:09;;;;;;;31.92;13.57;;;12.00;99.90;;;;;;4976930;28;20414;-70
2022/10/15 03:57:36;;;;;;;43.17;13.88;;;12.00;99.90;;;;;;4977930;28;20049;-70
2022/10/15 04:00:04;;;;;;;30.05;12.98;;;12.00;99.90;;;;;;4969031;28;20068;-70
2022/10/15 04:02:30;;;;;;;32.45;13.60;;;11.90;99.90;;;;;;4970755;28;20039;-69
2022/10/15 04:04:56;;;;;;;30.67;13.93;;;11.90;99.90;;;;;;4977927;28;20042;-70
2022/10/15 04:07:22;;;;;;;30.30;13.10;;;11.90;99.90;;;;;;4974955;28;20053;-70
2022/10/15 04:09:48;;;;;;;30.83;13.73;;;11.90;99.90;;;;;;4975468;28;20058;-70
2022/10/15 04:12:15;;;;;;;27.38;12.45;;;11.90;99.90;;;;;;4978477;28;20035;-70
2022/10/15 04:14:41;;;;;;;29.58;12.90;;;11.90;99.90;;;;;;4977209;28;20113;-70
2022/10/15 04:17:06;;;;;;;30.05;14.05;;;11.90;99.90;;;;;;4975074;28;20102;-70
2022/10/15 04:19:32;;;;;;;35.45;14.55;;;11.90;99.90;;;;;;4973950;28;20089;-71
2022/10/15 04:21:58;;;;;;;26.17;12.93;;;11.90;99.90;;;;;;4974828;28;20031;-70
2022/10/15 04:24:23;;;;;;;27.40;12.50;;;11.90;99.90;;;;;;4976705;28;20049;-71
2022/10/15 04:26:49;;;;;;;35.00;13.18;;;11.90;99.90;;;;;;4977362;28;20031;-71
2022/10/15 04:29:15;;;;;;;29.23;13.07;;;11.90;99.90;;;;;;4976554;28;20034;-70
2022/10/15 04:31:42;;;;;;;32.53;14.90;;;11.90;99.90;;;;;;4975814;28;20065;-70
2022/10/15 04:34:08;;;;;;;32.47;14.23;;;11.90;99.90;;;;;;4975628;28;20042;-70
2022/10/15 04:36:33;;;;;;;29.00;13.25;;;12.00;99.90;;;;;;4974613;28;20083;-70
2022/10/15 04:38:59;;;;;;;31.23;13.63;;;12.00;99.90;;;;;;4976781;28;20045;-70
2022/10/15 04:41:25;;;;;;;31.83;14.18;;;12.00;99.90;;;;;;4974822;28;20041;-70
2022/10/15 04:43:51;;;;;;;34.25;14.85;;;12.00;99.90;;;;;;4975233;28;20031;-71
2022/10/15 04:46:17;;;;;;;26.70;12.75;;;12.00;99.90;;;;;;4974249;28;20133;-70
2022/10/15 04:48:42;;;;;;;29.35;13.73;;;12.10;99.90;;;;;;4975985;28;20031;-70
2022/10/15 04:51:14;;;;;;;27.35;12.57;;;12.10;99.90;;;;;;4975276;28;20049;-72
2022/10/15 04:53:40;;;;;;;29.83;13.73;;;12.20;99.90;;;;;;4975687;28;20026;-72
2022/10/15 04:56:09;;;;;;;29.80;14.07;;;12.20;99.90;;;;;;4974795;28;20500;-71
2022/10/15 04:58:35;;;;;;;28.55;12.43;;;12.20;99.90;;;;;;4976071;28;20042;-69
2022/10/15 05:01:04;;;;;;;31.27;13.15;;;12.20;99.90;;;;;;4974019;28;20518;-70
2022/10/15 05:03:31;;;;;;;27.35;13.27;;;12.20;99.90;;;;;;4976576;28;20437;-69
2022/10/15 05:06:05;;;;;;;26.73;12.73;;;12.30;99.90;;;;;;4970179;28;20027;-70
2022/10/15 05:08:31;;;;;;;29.85;12.35;;;12.20;99.90;;;;;;4978084;28;20038;-70
2022/10/15 05:11:08;;;;;;;26.02;12.88;;;12.30;99.90;;;;;;4972883;28;20511;-70
2022/10/15 05:13:34;;;;;;;31.67;12.73;;;12.20;99.90;;;;;;4971611;28;20051;-70
2022/10/15 05:16:14;;;;;;;27.25;13.23;;;12.30;99.90;;;;;;4977775;28;20597;-70
2022/10/15 05:18:40;;;;;;;25.97;12.13;;;12.30;99.90;;;;;;4972836;28;20046;-72
2022/10/15 05:21:06;;;;;;;22.77;12.40;;;12.30;99.90;;;;;;4976826;28;20487;-71
2022/10/15 05:23:32;;;;;;;26.90;13.05;;;12.30;99.90;;;;;;4974134;28;20184;-70
2022/10/15 05:26:02;;;;;;;28.73;13.57;;;12.40;99.90;;;;;;4978113;28;20034;-71
2022/10/15 05:28:28;;;;;;;35.78;14.98;;;12.40;99.90;;;;;;4968950;28;20042;-70
2022/10/15 05:30:53;;;;;;;38.13;15.13;;;12.40;99.90;;;;;;4976992;28;20088;-69
2022/10/15 05:33:19;;;;;;;27.83;14.60;;;12.50;99.90;;;;;;4972789;28;20043;-69
2022/10/15 05:35:45;;;;;;;37.00;16.02;;;12.50;99.90;;;;;;4974585;28;20026;-70
2022/10/15 05:38:11;;;;;;;40.88;16.20;;;12.50;99.90;;;;;;4975942;28;20045;-70
2022/10/15 05:40:36;;;;;;;41.90;16.08;;;12.60;99.90;;;;;;4975240;28;20089;-69
2022/10/15 05:43:02;;;;;;;36.10;15.75;;;12.50;99.90;;;;;;4976962;28;20473;-70
2022/10/15 05:45:27;;;;;;;41.35;15.82;;;12.50;99.90;;;;;;4973739;28;20123;-69
2022/10/15 05:47:54;;;;;;;35.60;15.40;;;12.50;99.90;;;;;;4975331;28;20046;-71
2022/10/15 05:50:21;;;;;;;34.20;14.75;;;12.50;99.90;;;;;;4974239;28;20122;-69
2022/10/15 05:52:46;;;;;;;40.58;16.25;;;12.60;99.90;;;;;;4976156;28;20134;-70
2022/10/15 05:55:12;;;;;;;43.60;17.23;;;12.60;99.90;;;;;;4975806;28;20508;-70
2022/10/15 05:57:38;;;;;;;44.15;17.10;;;12.60;99.90;;;;;;4976297;28;20039;-69
2022/10/15 06:00:05;;;;;;;42.67;17.15;;;12.60;99.90;;;;;;4974819;28;20514;-69
2022/10/15 06:02:30;;;;;;;48.80;17.40;;;12.60;99.90;;;;;;4976378;28;20034;-69
2022/10/15 06:04:56;;;;;;;51.80;18.60;;;12.60;99.90;;;;;;4973950;28;20038;-70
2022/10/15 06:07:21;;;;;;;51.65;18.77;;;12.60;99.90;;;;;;4979278;28;20038;-71
2022/10/15 06:09:47;;;;;;;53.30;19.50;;;12.60;99.90;;;;;;4978541;28;20039;-70
2022/10/15 06:12:12;;;;;;;52.92;20.63;;;12.60;99.90;;;;;;4979554;28;20046;-71
2022/10/15 06:14:38;;;;;;;58.78;21.10;;;12.70;99.90;;;;;;4979147;28;20037;-71
2022/10/15 06:17:04;;;;;;;57.08;20.83;;;12.70;99.90;;;;;;4978500;28;20477;-70
2022/10/15 06:19:29;;;;;;;63.45;21.17;;;12.70;99.90;;;;;;4979003;28;20125;-70
2022/10/15 06:21:55;;;;;;;62.78;20.80;;;12.70;99.90;;;;;;4975993;28;20496;-69
2022/10/15 06:24:20;;;;;;;60.70;21.55;;;12.70;99.90;;;;;;4975302;28;20574;-70
2022/10/15 06:26:46;;;;;;;58.25;20.88;;;12.80;99.90;;;;;;4981062;28;20043;-70
2022/10/15 06:29:11;;;;;;;64.30;20.55;;;12.80;99.90;;;;;;4987160;28;20398;-70
2022/10/15 06:31:37;;;;;;;65.05;20.48;;;12.80;99.90;;;;;;4986881;28;20093;-70
2022/10/15 06:34:02;;;;;;;58.97;19.98;;;12.80;99.90;;;;;;4982727;28;20436;-70
2022/10/15 06:36:28;;;;;;;62.70;19.85;;;12.80;99.90;;;;;;4983758;28;20419;-70
2022/10/15 06:38:54;;;;;;;57.40;20.08;;;12.90;99.90;;;;;;4980539;28;20065;-69
2022/10/15 06:41:19;;;;;;;61.90;20.23;;;12.90;99.90;;;;;;4976148;28;20046;-69
2022/10/15 06:43:48;;;;;;;58.28;21.05;;;12.90;99.90;;;;;;4975626;28;20085;-71
2022/10/15 06:46:13;;;;;;;57.63;20.95;;;12.90;99.90;;;;;;4979004;28;20026;-70
2022/10/15 06:48:39;;;;;;;56.13;18.73;;;12.90;99.90;;;;;;4978505;28;20049;-70
2022/10/15 06:51:05;;;;;;;56.00;18.40;;;12.90;99.90;;;;;;4977607;28;20039;-71
2022/10/15 06:53:30;;;;;;;60.83;19.30;;;13.00;99.90;;;;;;4979544;28;20042;-70
2022/10/15 06:55:58;;;;;;;58.45;19.55;;;12.90;99.90;;;;;;4969856;28;20578;-70
2022/10/15 06:58:23;;;;;;;51.97;18.67;;;13.00;99.90;;;;;;4974208;28;20442;-70
2022/10/15 07:00:49;;;;;;;51.67;17.70;;;13.00;99.90;;;;;;4978737;28;20054;-71
2022/10/15 07:03:15;;;;;;;57.30;18.90;;;13.00;99.90;;;;;;4972991;28;20046;-70
2022/10/15 07:05:40;;;;;;;49.05;17.15;;;13.00;99.90;;;;;;4974640;28;20066;-71
2022/10/15 07:08:06;;;;;;;47.45;16.92;;;13.00;99.90;;;;;;4977630;28;20038;-70
2022/10/15 07:10:31;;;;;;;59.78;19.08;;;13.00;99.90;;;;;;4976179;28;20081;-69
2022/10/15 07:13:00;;;;;;;48.85;17.08;;;13.10;99.90;;;;;;4978060;28;20116;-71
2022/10/15 07:15:27;;;;;;;52.55;17.38;;;13.10;99.90;;;;;;4973128;28;20045;-69
2022/10/15 07:18:00;;;;;;;47.90;17.08;;;13.10;99.90;;;;;;4973689;28;20055;-70
2022/10/15 07:20:27;;;;;;;53.40;17.33;;;13.10;99.90;;;;;;4977567;28;20045;-70
2022/10/15 07:22:57;;;;;;;45.50;16.58;;;13.10;99.90;;;;;;4974992;28;20491;-70
2022/10/15 07:25:23;;;;;;;50.85;17.67;;;13.20;99.90;;;;;;4977671;28;20403;-70
2022/10/15 07:27:49;;;;;;;50.17;18.85;;;13.20;99.90;;;;;;4978309;28;20494;-70
2022/10/15 07:30:15;;;;;;;44.17;16.45;;;13.20;99.90;;;;;;4975186;28;20043;-70
2022/10/15 07:32:40;;;;;;;44.90;15.98;;;13.20;99.90;;;;;;4973293;28;20113;-72
2022/10/15 07:35:06;;;;;;;39.17;15.35;;;13.30;99.90;;;;;;4974786;28;20520;-71
2022/10/15 07:37:32;;;;;;;39.15;15.10;;;13.30;99.90;;;;;;4973522;28;20380;-70
2022/10/15 07:39:58;;;;;;;34.22;13.40;;;13.30;99.90;;;;;;4975082;28;20495;-70
2022/10/15 07:42:23;;;;;;;36.17;13.23;;;13.30;99.90;;;;;;4972837;28;20432;-70
2022/10/15 07:44:49;;;;;;;27.25;12.13;;;13.40;99.90;;;;;;4977803;28;20030;-70
2022/10/15 07:47:14;;;;;;;27.88;10.95;;;13.40;99.90;;;;;;4974751;28;20037;-70
2022/10/15 07:49:40;;;;;;;23.65;10.85;;;13.40;99.90;;;;;;4975442;28;20593;-72
2022/10/15 07:52:07;;;;;;;22.25;10.68;;;13.40;99.90;;;;;;4973531;28;20042;-70
2022/10/15 07:54:33;;;;;;;23.52;9.45;;;13.50;99.90;;;;;;4975744;28;20038;-68
2022/10/15 07:56:59;;;;;;;17.52;9.00;;;13.50;99.90;;;;;;4974527;28;20031;-69
2022/10/15 07:59:25;;;;;;;15.95;7.78;;;13.50;99.90;;;;;;4974911;28;20038;-69
2022/10/15 08:01:50;;;;;;;17.98;8.40;;;13.50;99.90;;;;;;4978609;28;20034;-71
2022/10/15 08:04:16;;;;;;;17.17;8.43;;;13.50;99.90;;;;;;4976330;28;20461;-69
2022/10/15 08:06:42;;;;;;;15.80;7.50;;;13.60;99.90;;;;;;4976479;28;20030;-70
2022/10/15 08:09:07;;;;;;;18.35;8.43;;;13.60;99.90;;;;;;4977915;28;20077;-69
2022/10/15 08:11:33;;;;;;;15.30;7.68;;;13.60;99.90;;;;;;4972247;28;20054;-68
2022/10/15 08:13:58;;;;;;;16.83;8.02;;;13.60;99.90;;;;;;4975485;28;20038;-72
2022/10/15 08:16:24;;;;;;;16.08;7.88;;;13.60;99.90;;;;;;4972125;28;20053;-70
2022/10/15 08:18:51;;;;;;;24.02;7.63;;;13.60;99.90;;;;;;4975906;28;20034;-68
2022/10/15 08:21:16;;;;;;;18.45;8.55;;;13.60;99.90;;;;;;4970065;28;20262;-71
2022/10/15 08:23:42;;;;;;;19.98;8.13;;;13.70;99.90;;;;;;4977646;28;20141;-69
2022/10/15 08:26:08;;;;;;;15.60;7.55;;;13.80;99.90;;;;;;4981125;28;20035;-70
2022/10/15 08:28:34;;;;;;;17.98;8.63;;;13.80;99.90;;;;;;4976640;28;20038;-70
2022/10/15 08:31:01;;;;;;;17.60;8.07;;;13.90;99.90;;;;;;4972962;28;20879;-68
2022/10/15 08:33:28;;;;;;;17.08;7.75;;;14.00;99.90;;;;;;4974477;28;20031;-68
2022/10/15 08:35:54;;;;;;;15.80;8.07;;;14.10;99.90;;;;;;4978241;28;20084;-70
2022/10/15 08:38:20;;;;;;;17.42;7.93;;;14.20;99.90;;;;;;4973001;28;20042;-69
2022/10/15 08:40:48;;;;;;;15.85;7.85;;;14.30;99.90;;;;;;4974983;28;20448;-69
2022/10/15 08:43:22;;;;;;;18.33;7.80;;;14.40;99.90;;;;;;4975142;28;20050;-69
2022/10/15 08:45:50;;;;;;;14.70;7.20;;;14.50;99.90;;;;;;4961725;28;20035;-70
2022/10/15 08:48:36;;;;;;;15.02;6.93;;;14.60;99.90;;;;;;4985445;28;20157;-71
2022/10/15 08:51:08;;;;;;;12.77;6.47;;;14.70;99.90;;;;;;4974172;28;20122;-69
2022/10/15 08:53:39;;;;;;;13.18;7.53;;;14.80;99.90;;;;;;4976394;28;20037;-71
2022/10/15 08:56:13;;;;;;;11.13;5.47;;;14.90;99.90;;;;;;4974136;28;20027;-75
2022/10/15 08:58:55;;;;;;;11.63;5.97;;;14.90;99.90;;;;;;4978909;28;20545;-70
2022/10/15 09:01:35;;;;;;;10.77;5.22;;;15.00;99.90;;;;;;4976949;28;20041;-70
2022/10/15 09:04:15;;;;;;;10.77;5.32;;;15.00;99.90;;;;;;4978286;28;20436;-70
2022/10/15 09:06:41;;;;;;;15.25;6.78;;;15.00;99.90;;;;;;4974097;28;20038;-72
2022/10/15 09:09:16;;;;;;;11.90;5.82;;;15.10;99.90;;;;;;4976547;28;20038;-72
2022/10/15 09:12:06;;;;;;;9.93;5.95;;;15.10;99.90;;;;;;4972790;28;20038;-71
2022/10/15 09:14:39;;;;;;;10.88;5.53;;;15.20;99.90;;;;;;4974417;28;20039;-70
2022/10/15 09:17:15;;;;;;;11.10;5.43;;;15.10;99.90;;;;;;4974802;28;20058;-69
2022/10/15 09:19:43;;;;;;;9.25;5.10;;;15.10;99.90;;;;;;4975564;28;20392;-71
2022/10/15 09:22:13;;;;;;;11.75;5.13;;;15.10;99.90;;;;;;4974200;28;20106;-70
2022/10/15 09:24:39;;;;;;;9.23;4.47;;;15.10;99.90;;;;;;4975805;28;20034;-69
2022/10/15 09:27:11;;;;;;;8.32;4.30;;;15.00;99.90;;;;;;4975411;28;20026;-70
2022/10/15 09:29:56;;;;;;;15.38;3.90;;;14.90;99.90;;;;;;4977136;28;20044;-71
2022/10/15 09:32:59;;;;;;;8.55;4.32;;;14.80;99.90;;;;;;4970227;28;20043;-71
2022/10/15 09:35:35;;;;;;;8.40;4.45;;;14.70;99.90;;;;;;4973682;28;20039;-70
2022/10/15 09:38:22;;;;;;;11.60;5.20;;;14.70;99.90;;;;;;4973926;28;20047;-70
2022/10/15 09:41:09;;;;;;;8.35;4.18;;;14.70;99.90;;;;;;4961938;28;20093;-70
2022/10/15 09:43:37;;;;;;;10.60;4.78;;;14.50;99.90;;;;;;4973689;28;20045;-70
2022/10/15 09:46:03;;;;;;;11.40;4.97;;;14.50;99.90;;;;;;4974042;28;20045;-70
2022/10/15 09:48:46;;;;;;;9.23;5.18;;;14.40;99.90;;;;;;4972342;28;20058;-71
2022/10/15 09:51:28;;;;;;;13.23;4.90;;;14.30;99.90;;;;;;4973979;28;20046;-70
2022/10/15 09:54:14;;;;;;;11.38;5.13;;;14.20;99.90;;;;;;4973521;28;20047;-70
2022/10/15 09:56:54;;;;;;;13.93;5.45;;;14.20;99.90;;;;;;4972646;28;20883;-74
2022/10/15 09:59:21;;;;;;;15.15;5.97;;;14.20;99.90;;;;;;4969155;28;20123;-70
2022/10/15 10:02:15;;;;;;;15.93;6.10;;;14.20;99.90;;;;;;4968726;28;20193;-70
2022/10/15 10:04:41;;;;;;;15.18;6.55;;;14.20;99.90;;;;;;4973937;28;20046;-71
2022/10/15 10:07:07;;;;;;;12.73;6.22;;;14.30;99.90;;;;;;4969540;28;20038;-71
2022/10/15 10:09:37;;;;;;;14.48;6.45;;;14.30;99.90;;;;;;4972786;28;20525;-71
2022/10/15 10:12:16;;;;;;;14.67;5.37;;;14.40;99.90;;;;;;4976811;28;20039;-69
2022/10/15 10:14:51;;;;;;;13.60;6.13;;;14.40;99.90;;;;;;4968268;28;20826;-71
2022/10/15 10:17:23;;;;;;;14.25;5.82;;;14.40;99.90;;;;;;4973191;28;20056;-69
2022/10/15 10:20:12;;;;;;;19.35;6.65;;;14.40;99.90;;;;;;4971005;28;20044;-70
2022/10/15 10:22:52;;;;;;;15.90;6.03;;;14.50;99.90;;;;;;4968854;28;20031;-69
2022/10/15 10:25:41;;;;;;;10.25;4.80;;;14.50;99.90;;;;;;4969883;28;20039;-69
2022/10/15 10:28:12;;;;;;;14.50;5.18;;;14.60;99.90;;;;;;4969866;28;20026;-70
2022/10/15 10:30:46;;;;;;;10.45;5.25;;;14.60;99.90;;;;;;4972303;28;20041;-70
2022/10/15 10:33:14;;;;;;;8.93;4.53;;;14.60;99.90;;;;;;4969799;28;20446;-71
2022/10/15 10:35:45;;;;;;;12.25;4.93;;;14.50;99.90;;;;;;4967002;28;20681;-71
2022/10/15 10:38:44;;;;;;;12.32;5.28;;;14.50;99.90;;;;;;4969081;28;20124;-73
2022/10/15 10:41:11;;;;;;;11.23;4.65;;;14.50;99.90;;;;;;4969054;28;20054;-70
2022/10/15 10:43:38;;;;;;;11.43;5.05;;;14.50;99.90;;;;;;4972606;28;20065;-72
2022/10/15 10:46:13;;;;;;;12.98;5.45;;;14.50;99.90;;;;;;4972837;28;20035;-70
2022/10/15 10:48:42;;;;;;;11.68;5.15;;;14.40;99.90;;;;;;4969232;28;20608;-69
2022/10/15 10:51:12;;;;;;;11.98;5.40;;;14.40;99.90;;;;;;4970424;28;20411;-71
2022/10/15 10:53:57;;;;;;;;;;;14.40;99.90;;;;;;4969577;28;20030;-70
2022/10/15 10:56:27;;;;;;;11.18;4.82;;;14.40;99.90;;;;;;4969518;28;19918;-71
2022/10/15 10:58:56;;;;;;;;;;;14.50;99.90;;;;;;4977128;28;20035;-71
2022/10/15 11:01:21;;;;;;;14.07;5.72;;;14.50;99.90;;;;;;4974315;28;20629;-71
2022/10/15 11:03:49;;;;;;;13.13;6.05;;;14.40;99.90;;;;;;4968177;28;20039;-71
2022/10/15 11:06:24;;;;;;;14.30;5.65;;;14.50;99.90;;;;;;4974489;28;20038;-71
2022/10/15 11:09:06;;;;;;;14.25;5.85;;;14.50;99.90;;;;;;4975071;28;20105;-71
2022/10/15 11:11:59;;;;;;;12.07;5.07;;;14.50;99.90;;;;;;4972838;28;20549;-71
2022/10/15 11:14:46;;;;;;;11.00;5.65;;;14.50;99.90;;;;;;4969115;28;20042;-70
2022/10/15 11:17:21;;;;;;;14.00;5.50;;;14.50;99.90;;;;;;4965983;28;20474;-71
2022/10/15 11:19:56;;;;;;;15.38;5.75;;;14.60;99.90;;;;;;4975539;28;20037;-70
2022/10/15 11:22:36;;;;;;;9.85;5.03;;;14.60;99.90;;;;;;4971174;28;20040;-71
2022/10/15 11:25:19;;;;;;;12.13;5.00;;;14.60;99.90;;;;;;4969653;28;20494;-70
2022/10/15 11:28:22;;;;;;;12.90;4.88;;;14.60;99.90;;;;;;4967114;28;20027;-70
2022/10/15 11:30:53;;;;;;;8.63;3.63;;;14.60;99.90;;;;;;4970638;28;20031;-71
2022/10/15 11:33:44;;;;;;;10.13;4.50;;;14.70;99.90;;;;;;4971604;28;20109;-70
2022/10/15 11:36:28;;;;;;;9.95;4.35;;;14.70;99.90;;;;;;4968585;28;20110;-71
2022/10/15 11:39:03;;;;;;;9.80;4.63;;;14.60;99.90;;;;;;4967197;28;20045;-70
2022/10/15 11:41:43;;;;;;;10.40;4.78;;;14.70;99.90;;;;;;4969797;28;21750;-70
2022/10/15 11:44:18;;;;;;;8.13;3.65;;;14.70;99.90;;;;;;4968548;28;20603;-70
2022/10/15 11:47:11;;;;;;;7.18;3.50;;;14.80;99.90;;;;;;4969187;28;20066;-71
2022/10/15 11:50:22;;;;;;;9.60;3.97;;;14.80;99.90;;;;;;4967563;28;20513;-70
2022/10/15 11:53:12;;;;;;;12.65;3.53;;;14.80;99.90;;;;;;4960244;28;20104;-71
2022/10/15 11:55:44;;;;;;;8.02;3.33;;;14.80;99.90;;;;;;4967086;28;20039;-70
2022/10/15 11:58:27;;;;;;;8.30;3.53;;;14.90;99.90;;;;;;4975215;28;20038;-70
2022/10/15 12:00:59;;;;;;;8.15;3.45;;;14.90;99.90;;;;;;4972902;28;20038;-69
2022/10/15 12:03:27;;;;;;;11.38;4.07;;;14.90;99.90;;;;;;4971710;28;20573;-69
2022/10/15 12:06:02;;;;;;;9.18;3.20;;;14.90;99.90;;;;;;4970603;28;20039;-72
2022/10/15 12:08:33;;;;;;;10.05;3.67;;;15.00;99.90;;;;;;4974246;28;20089;-71
2022/10/15 12:11:17;;;;;;;;;;;15.00;99.90;;;;;;4973733;28;20390;-70
2022/10/15 12:14:06;;;;;;;9.50;4.07;;;15.10;99.90;;;;;;4968306;28;19972;-70
2022/10/15 12:16:53;;;;;;;7.13;3.60;;;15.10;99.90;;;;;;4970212;28;20039;-70
2022/10/15 12:19:45;;;;;;;10.00;3.85;;;15.10;99.90;;;;;;4971286;28;20205;-71
2022/10/15 12:22:11;;;;;;;6.95;3.25;;;15.20;99.90;;;;;;4971540;28;20042;-70
2022/10/15 12:24:36;;;;;;;7.85;3.83;;;15.30;99.90;;;;;;4969132;28;20505;-69
2022/10/15 12:27:21;;;;;;;5.82;3.38;;;15.30;99.90;;;;;;4971210;28;20066;-70
2022/10/15 12:30:02;;;;;;;5.22;3.17;;;15.30;99.90;;;;;;4967887;28;20050;-72
2022/10/15 12:32:41;;;;;;;7.43;3.85;;;15.40;99.90;;;;;;4965248;28;20034;-70
2022/10/15 12:35:42;;;;;;;6.88;3.75;;;15.50;99.90;;;;;;4970549;28;20035;-73
2022/10/15 12:38:09;;;;;;;;;;;15.50;99.90;;;;;;4971300;28;20034;-71
2022/10/15 12:40:36;;;;;;;6.00;3.33;;;15.60;99.90;;;;;;4977398;28;20099;-70
2022/10/15 12:43:12;;;;;;;7.15;3.63;;;15.50;99.90;;;;;;4966219;28;20038;-70
2022/10/15 12:45:47;;;;;;;5.85;3.38;;;15.60;99.90;;;;;;4966738;28;20057;-70
2022/10/15 12:48:15;;;;;;;5.57;3.33;;;15.50;99.90;;;;;;4971881;28;20049;-70
2022/10/15 12:50:41;;;;;;;4.82;2.97;;;15.40;99.90;;;;;;4973915;28;20825;-74
2022/10/15 12:53:28;;;;;;;6.53;3.50;;;15.50;99.90;;;;;;4966443;28;20046;-73